Time;durP1;ratioP1;P1;durP2;ratioP2;P2;SDS_P1;SDS_P2;PMS_P1;PMS_P2;Temp;Humidity;BMP_temperature;BMP_pressure;BME280_temperature;BME280_humidity;BME280_pressure;Samples;Min_cycle;Max_cycle;Signal;HPM_P1;HPM_P2
2022/04/21 00:00:05;;;;;;;0.45;0.20;;;;;;;23.81;47.93;102505.88;5053461;28;20025;-71
2022/04/21 00:02:30;;;;;;;0.30;0.20;;;;;;;23.84;48.59;102511.00;5051787;28;20036;-72
2022/04/21 00:04:56;;;;;;;1.23;0.30;;;;;;;23.83;48.53;102512.03;5051065;28;20472;-72
2022/04/21 00:07:22;;;;;;;1.08;0.20;;;;;;;23.84;48.07;102516.50;5051905;28;20029;-72
2022/04/21 00:09:48;;;;;;;0.40;0.30;;;;;;;23.84;48.60;102517.38;5052089;28;20419;-72
2022/04/21 00:12:13;;;;;;;1.02;0.60;;;;;;;23.82;48.40;102513.06;5053034;28;20031;-71
2022/04/21 00:14:39;;;;;;;1.45;0.20;;;;;;;23.81;47.88;102512.22;5053206;28;20025;-72
2022/04/21 00:17:04;;;;;;;0.10;0.10;;;;;;;23.82;47.26;102513.06;5053397;28;20037;-72
2022/04/21 00:19:29;;;;;;;0.52;0.17;;;;;;;23.85;48.23;102518.22;5053187;28;20021;-72
2022/04/21 00:24:39;;;;;;;1.02;0.20;;;;;;;23.78;47.68;102517.19;5053281;28;20525;-72
2022/04/21 00:27:04;;;;;;;0.70;0.20;;;;;;;23.81;48.40;102520.44;5053048;28;20033;-73
2022/04/21 00:29:29;;;;;;;1.65;0.30;;;;;;;23.81;47.61;102517.72;5053114;28;20032;-72
2022/04/21 00:31:55;;;;;;;0.55;0.10;;;;;;;23.79;48.37;102518.91;5058663;28;20552;-70
2022/04/21 00:34:20;;;;;;;0.35;0.10;;;;;;;23.81;47.91;102522.34;5072339;28;20115;-71
2022/04/21 00:36:45;;;;;;;0.40;0.17;;;;;;;23.81;48.53;102516.84;5055133;28;20390;-69
2022/04/21 00:39:11;;;;;;;0.77;0.38;;;;;;;23.85;48.31;102529.22;5075550;28;20024;-72
2022/04/21 00:41:36;;;;;;;0.22;0.10;;;;;;;23.82;47.01;102524.06;5052692;28;20064;-72
2022/04/21 00:44:02;;;;;;;0.63;0.20;;;;;;;23.80;47.90;102529.72;5052883;28;20029;-73
2022/04/21 00:46:28;;;;;;;1.17;0.10;;;;;;;23.79;48.02;102529.88;5052381;28;20035;-72
2022/04/21 00:48:54;;;;;;;1.45;0.28;;;;;;;23.81;47.70;102527.84;5052814;28;20029;-72
2022/04/21 00:51:20;;;;;;;0.63;0.20;;;;;;;23.79;48.02;102535.38;5052464;28;20447;-72
2022/04/21 00:53:45;;;;;;;0.35;0.20;;;;;;;23.81;47.69;102527.84;5052734;28;20063;-72
2022/04/21 00:56:10;;;;;;;0.77;0.20;;;;;;;23.81;48.30;102530.56;5052591;28;20112;-71
2022/04/21 00:58:37;;;;;;;0.68;0.15;;;;;;;23.81;47.56;102533.31;5052370;28;20025;-72
2022/04/21 01:01:03;;;;;;;0.50;0.10;;;;;;;23.78;48.30;102529.03;5052674;28;20025;-73
2022/04/21 01:03:28;;;;;;;1.55;0.28;;;;;;;23.76;48.44;102530.22;5052261;28;20104;-73
2022/04/21 01:05:54;;;;;;;0.82;0.40;;;;;;;23.79;48.12;102527.16;5052904;28;20471;-72
2022/04/21 01:08:19;;;;;;;0.93;0.20;;;;;;;23.79;48.56;102524.41;5063347;28;20045;-71
2022/04/21 01:10:45;;;;;;;0.63;0.17;;;;;;;23.79;48.21;102519.75;5076786;28;20022;-73
2022/04/21 01:13:12;;;;;;;1.30;0.30;;;;;;;23.76;47.85;102519.25;5052357;28;20029;-72
2022/04/21 01:15:39;;;;;;;0.90;0.10;;;;;;;23.76;48.12;102525.59;5050938;28;20391;-73
2022/04/21 01:18:05;;;;;;;1.83;0.20;;;;;;;23.73;47.00;102519.59;5055199;28;20056;-73
2022/04/21 01:20:31;;;;;;;0.20;0.10;;;;;;;23.78;48.27;102522.69;5056055;28;20475;-72
2022/04/21 01:22:57;;;;;;;1.08;0.28;;;;;;;23.79;47.36;102518.91;5055270;28;20025;-73
2022/04/21 01:25:22;;;;;;;0.85;0.20;;;;;;;23.79;47.55;102513.41;5055188;28;20425;-72
2022/04/21 01:27:50;;;;;;;1.35;0.52;;;;;;;23.76;47.38;102525.59;5063456;28;20029;-73
2022/04/21 01:30:16;;;;;;;0.40;0.30;;;;;;;23.77;47.42;102520.97;5056201;28;20035;-72
2022/04/21 01:32:43;;;;;;;0.50;0.22;;;;;;;23.77;48.21;102515.47;5056677;28;20017;-73
2022/04/21 01:35:09;;;;;;;0.50;0.20;;;;;;;23.81;48.54;102516.84;5056317;28;20066;-73
2022/04/21 01:43:04;;;;;;;0.50;0.20;;;;;;;23.75;47.24;102506.53;5056645;28;20418;-72
2022/04/21 01:45:30;;;;;;;0.40;0.10;;;;;;;23.78;47.98;102511.69;5056083;28;20036;-72
2022/04/21 01:47:56;;;;;;;0.68;0.35;;;;;;;23.79;47.64;102502.44;5056235;28;20024;-73
2022/04/21 01:50:23;;;;;;;0.75;0.28;;;;;;;23.75;47.44;102501.91;5078013;28;20013;-69
2022/04/21 01:52:48;;;;;;;0.20;0.10;;;;;;;23.75;47.79;102501.06;5072166;28;20095;-73
2022/04/21 01:55:14;;;;;;;0.30;0.20;;;;;;;23.77;48.44;102504.47;5055915;28;20452;-72
2022/04/21 01:57:39;;;;;;;0.50;0.10;;;;;;;23.77;48.09;102499.00;5056495;28;20017;-73
2022/04/21 02:00:06;;;;;;;0.45;0.20;;;;;;;23.74;48.56;102499.34;5055848;28;20379;-72
2022/04/21 02:02:32;;;;;;;0.10;0.10;;;;;;;23.76;48.25;102494.53;5054091;28;20071;-73
2022/04/21 02:04:57;;;;;;;1.85;0.20;;;;;;;23.79;48.29;102494.19;5054506;28;20025;-72
2022/04/21 02:07:24;;;;;;;0.15;0.10;;;;;;;23.78;47.83;102495.22;5055722;28;20029;-72
2022/04/21 02:09:49;;;;;;;1.58;0.20;;;;;;;23.77;47.95;102499.00;5055576;28;20055;-73
2022/04/21 02:12:15;;;;;;;0.20;0.20;;;;;;;23.72;47.54;102494.00;5055310;28;20061;-72
2022/04/21 02:14:40;;;;;;;0.63;0.10;;;;;;;23.76;48.55;102491.78;5057883;28;20036;-70
2022/04/21 02:17:06;;;;;;;0.40;0.20;;;;;;;23.73;47.75;102495.72;5062664;28;20448;-72
2022/04/21 02:19:32;;;;;;;0.68;0.20;;;;;;;23.75;48.12;102488.19;5055246;28;20025;-71
2022/04/21 02:21:57;;;;;;;0.50;0.15;;;;;;;23.75;48.09;102487.31;5054449;28;20071;-72
2022/04/21 02:24:23;;;;;;;1.58;0.20;;;;;;;23.76;48.15;102491.78;5055122;28;20017;-73
2022/04/21 02:26:48;;;;;;;0.60;0.10;;;;;;;23.75;47.88;102490.94;5053979;28;20025;-73
2022/04/21 02:29:13;;;;;;;0.52;0.20;;;;;;;23.73;47.46;102492.13;5054203;28;20029;-71
2022/04/21 02:31:38;;;;;;;0.63;0.20;;;;;;;23.77;48.09;102488.00;5069489;28;20168;-71
2022/04/21 02:34:04;;;;;;;0.43;0.10;;;;;;;23.74;48.59;102485.59;5056653;28;20102;-73
2022/04/21 02:36:29;;;;;;;1.10;0.10;;;;;;;23.76;48.46;102494.53;5054747;28;20056;-73
2022/04/21 02:38:54;;;;;;;0.20;0.10;;;;;;;23.73;47.67;102486.63;5055104;28;20032;-73
2022/04/21 02:41:20;;;;;;;1.75;0.20;;;;;;;23.72;49.02;102502.25;5054849;28;20029;-72
2022/04/21 02:43:45;;;;;;;1.10;0.40;;;;;;;23.74;47.96;102493.84;5053726;28;20037;-72
2022/04/21 02:46:12;;;;;;;0.40;0.10;;;;;;;23.75;48.04;102495.56;5054822;28;20036;-72
2022/04/21 02:48:37;;;;;;;0.20;0.10;;;;;;;23.74;47.53;102489.22;5053538;28;20049;-73
2022/04/21 02:51:03;;;;;;;1.15;0.20;;;;;;;23.76;48.57;102487.16;5054866;28;20424;-72
2022/04/21 02:59:00;;;;;;;0.85;0.20;;;;;;;23.73;48.28;102486.63;5055253;28;20072;-72
2022/04/21 03:01:25;;;;;;;0.52;0.10;;;;;;;23.72;48.74;102480.28;5052960;28;20052;-73
2022/04/21 03:03:50;;;;;;;0.95;0.20;;;;;;;23.76;47.96;102486.28;5058468;28;20037;-73
2022/04/21 03:06:16;;;;;;;0.60;0.20;;;;;;;23.76;48.55;102497.28;5054398;28;20021;-72
2022/04/21 03:08:41;;;;;;;0.40;0.10;;;;;;;23.75;47.99;102484.56;5054742;28;20344;-73
2022/04/21 03:11:06;;;;;;;0.52;0.20;;;;;;;23.75;48.30;102484.56;5054688;28;20090;-72
2022/04/21 03:13:32;;;;;;;0.28;0.10;;;;;;;23.73;48.21;102471.00;5054306;28;20031;-72
2022/04/21 03:15:57;;;;;;;0.32;0.20;;;;;;;23.74;46.99;102471.88;5062725;28;20041;-70
2022/04/21 03:18:22;;;;;;;0.43;0.20;;;;;;;23.76;48.32;102469.81;5072370;28;20032;-73
2022/04/21 03:26:17;;;;;;;0.55;0.13;;;;;;;23.74;49.09;102482.84;5054069;28;20459;-72
2022/04/21 03:28:43;;;;;;;0.85;0.20;;;;;;;23.72;48.34;102483.03;5054144;28;20426;-73
2022/04/21 03:31:08;;;;;;;0.77;0.10;;;;;;;23.75;48.76;102485.44;5054089;28;20455;-73
2022/04/21 03:33:33;;;;;;;0.93;0.10;;;;;;;23.75;49.17;102484.56;5053828;28;20048;-72
2022/04/21 03:35:58;;;;;;;0.17;0.10;;;;;;;23.74;48.54;102482.84;5054069;28;20052;-74
2022/04/21 03:38:24;;;;;;;0.52;0.13;;;;;;;23.77;48.44;102488.00;5053726;28;20053;-73
2022/04/21 03:40:50;;;;;;;0.63;0.15;;;;;;;23.73;48.44;102486.63;5052641;28;20068;-73
2022/04/21 03:43:15;;;;;;;0.70;0.35;;;;;;;23.74;48.93;102488.34;5053987;28;20108;-73
2022/04/21 03:45:40;;;;;;;0.25;0.10;;;;;;;23.76;49.15;102491.78;5054566;28;20017;-73
2022/04/21 03:48:06;;;;;;;0.90;0.13;;;;;;;23.75;49.27;102501.91;5052693;28;20479;-73
2022/04/21 03:50:31;;;;;;;0.20;0.10;;;;;;;23.72;48.98;102504.13;5052477;28;20064;-73
2022/04/21 03:52:57;;;;;;;0.40;0.20;;;;;;;23.76;48.89;102508.25;5053498;28;20041;-74
2022/04/21 03:55:23;;;;;;;0.40;0.10;;;;;;;23.75;49.30;102501.06;5066341;28;20044;-72
2022/04/21 03:57:48;;;;;;;0.38;0.20;;;;;;;23.72;48.51;102502.25;5076683;28;20017;-70
2022/04/21 04:00:13;;;;;;;0.55;0.20;;;;;;;23.72;49.26;102506.88;5078231;28;20013;-70
2022/04/21 04:02:39;;;;;;;0.77;0.20;;;;;;;23.88;48.51;102507.78;5059663;28;20440;-74
2022/04/21 04:05:04;;;;;;;1.13;0.10;;;;;;;23.93;48.10;102510.03;5053674;28;20131;-74
2022/04/21 04:12:57;;;;;;;0.47;0.10;;;;;;;24.09;47.55;102511.94;5053506;28;20112;-74
2022/04/21 04:15:23;;;;;;;0.20;0.10;;;;;;;24.08;47.29;102497.34;5053184;28;20053;-73
2022/04/21 04:17:48;;;;;;;0.30;0.25;;;;;;;24.21;48.16;102511.44;5053377;28;20027;-74
2022/04/21 04:20:13;;;;;;;0.17;0.05;;;;;;;24.13;47.52;102516.91;5052973;28;20066;-72
2022/04/21 04:22:42;;;;;;;0.73;0.10;;;;;;;24.18;47.58;102517.25;5051842;28;20051;-72
2022/04/21 04:25:11;;;;;;;0.50;0.30;;;;;;;24.20;48.07;102511.63;5053362;28;20032;-74
2022/04/21 04:27:37;;;;;;;0.00;0.00;;;;;;;24.19;47.01;102510.75;5053424;28;20052;-74
2022/04/21 04:30:07;;;;;;;0.60;0.10;;;;;;;24.16;47.15;102511.06;5053274;28;20040;-73
2022/04/21 04:32:33;;;;;;;0.20;0.10;;;;;;;24.23;46.38;102516.78;5052729;28;20024;-73
2022/04/21 04:34:58;;;;;;;0.13;0.10;;;;;;;24.21;47.37;102519.69;5053098;28;20143;-73
2022/04/21 04:37:24;;;;;;;0.10;0.00;;;;;;;24.22;46.68;102509.56;5054717;28;20048;-72
2022/04/21 04:39:49;;;;;;;0.25;0.00;;;;;;;24.25;47.56;102510.06;5055439;28;20029;-74
2022/04/21 04:42:17;;;;;;;0.17;0.10;;;;;;;24.29;47.18;102508.72;5051630;28;20123;-73
2022/04/21 04:44:43;;;;;;;0.43;0.00;;;;;;;24.23;46.61;102506.63;5052794;28;20432;-74
2022/04/21 04:47:09;;;;;;;0.22;0.10;;;;;;;24.25;45.60;102509.22;5052776;28;20387;-73
2022/04/21 04:49:34;;;;;;;0.85;0.13;;;;;;;24.29;46.22;102511.47;5052441;28;20024;-73
2022/04/21 04:51:59;;;;;;;0.30;0.20;;;;;;;24.29;46.68;102516.09;5052333;28;20086;-74
2022/04/21 04:54:25;;;;;;;1.15;0.20;;;;;;;24.21;46.70;102519.69;5063573;28;20077;-70
2022/04/21 04:56:51;;;;;;;0.20;0.10;;;;;;;24.23;46.30;102509.38;5053823;28;20029;-73
2022/04/21 04:59:16;;;;;;;0.95;0.08;;;;;;;24.25;46.22;102510.06;5051122;28;20028;-73
2022/04/21 05:01:43;;;;;;;0.17;0.00;;;;;;;24.28;46.84;102512.47;5051299;28;20024;-74
2022/04/21 05:04:11;;;;;;;1.38;0.45;;;;;;;24.26;46.32;102506.28;5052503;28;20025;-74
2022/04/21 05:06:44;;;;;;;0.45;0.08;;;;;;;24.25;46.12;102512.81;5052615;28;20411;-74
2022/04/21 05:09:23;;;;;;;0.17;0.03;;;;;;;24.21;45.75;102507.84;5052583;28;20045;-73
2022/04/21 05:11:52;;;;;;;0.20;0.10;;;;;;;24.23;45.94;102512.13;5052558;28;20047;-74
2022/04/21 05:14:18;;;;;;;0.45;0.10;;;;;;;24.22;46.79;102510.41;5059883;28;20016;-70
2022/04/21 05:16:44;;;;;;;0.13;0.03;;;;;;;24.28;46.16;102506.13;5064858;28;20484;-73
2022/04/21 05:19:11;;;;;;;0.10;0.00;;;;;;;24.29;46.59;102505.97;5052463;28;20021;-73
2022/04/21 05:21:37;;;;;;;0.47;0.10;;;;;;;24.32;46.43;102499.28;5050928;28;20111;-73
2022/04/21 05:24:04;;;;;;;0.68;0.10;;;;;;;24.33;45.38;102505.63;5050964;28;20108;-74
2022/04/21 05:26:31;;;;;;;0.90;0.00;;;;;;;24.24;46.29;102508.34;5052380;28;20052;-73
2022/04/21 05:28:59;;;;;;;0.68;0.13;;;;;;;24.30;47.08;102509.56;5052422;28;20029;-73
2022/04/21 05:31:26;;;;;;;0.22;0.10;;;;;;;24.27;46.51;102508.00;5052322;28;20024;-73
2022/04/21 05:33:52;;;;;;;0.30;0.10;;;;;;;24.24;45.88;102502.84;5051147;28;20040;-73
2022/04/21 05:36:18;;;;;;;1.10;0.03;;;;;;;24.30;45.80;102501.34;5052195;28;20400;-73
2022/04/21 05:38:43;;;;;;;0.20;0.03;;;;;;;24.32;45.11;102509.41;5052413;28;20067;-73
2022/04/21 05:41:09;;;;;;;0.25;0.08;;;;;;;24.28;45.54;102508.84;5050951;28;20021;-73
2022/04/21 05:43:43;;;;;;;2.67;0.50;;;;;;;24.34;45.98;102504.59;5064970;28;20013;-73
2022/04/21 05:46:14;;;;;;;0.55;0.20;;;;;;;24.30;46.01;102506.81;5050913;28;20025;-73
2022/04/21 05:48:40;;;;;;;0.10;0.10;;;;;;;24.34;45.50;102512.84;5052000;28;20029;-73
2022/04/21 05:51:07;;;;;;;0.20;0.20;;;;;;;24.29;45.84;102511.47;5052071;28;20027;-72
2022/04/21 05:53:36;;;;;;;0.90;0.20;;;;;;;24.27;46.99;102513.50;5059431;28;20036;-71
2022/04/21 05:56:05;;;;;;;0.98;0.22;;;;;;;24.36;47.03;102513.56;5075596;28;20031;-73
2022/04/21 05:58:31;;;;;;;1.52;0.10;;;;;;;24.36;47.01;102517.16;5051638;28;20025;-73
2022/04/21 06:00:57;;;;;;;0.10;0.10;;;;;;;24.38;46.84;102514.22;5050944;28;20040;-73
2022/04/21 06:03:23;;;;;;;0.52;0.15;;;;;;;24.30;46.45;102513.19;5050053;28;20029;-72
2022/04/21 06:05:49;;;;;;;0.30;0.00;;;;;;;24.36;46.90;102516.31;5054321;28;20059;-73
2022/04/21 06:08:14;;;;;;;1.27;0.10;;;;;;;24.31;47.27;102514.03;5054070;28;20053;-71
2022/04/21 06:10:40;;;;;;;0.43;0.00;;;;;;;24.33;46.48;102508.38;5053981;28;20579;-72
2022/04/21 06:13:05;;;;;;;3.15;0.90;;;;;;;24.40;49.43;102514.91;5052886;28;20436;-72
2022/04/21 06:15:31;;;;;;;2.53;0.20;;;;;;;24.30;50.64;102513.19;5054366;28;20235;-68
2022/04/21 06:17:58;;;;;;;0.47;0.10;;;;;;;24.22;50.71;102507.66;5054068;28;20012;-70
2022/04/21 06:20:23;;;;;;;1.50;0.10;;;;;;;24.13;49.39;102508.66;5053672;28;20061;-67
2022/04/21 06:22:48;;;;;;;0.82;0.03;;;;;;;24.20;49.37;102514.38;5053887;28;20051;-64
2022/04/21 06:25:14;;;;;;;0.63;0.10;;;;;;;;;;5054128;28;20460;-67
2022/04/21 06:27:39;;;;;;;0.25;0.17;;;;;;;24.10;48.84;102509.00;5053745;28;20128;-67
2022/04/21 06:30:05;;;;;;;0.57;0.10;;;;;;;24.17;48.71;102523.78;5053612;28;20017;-70
2022/04/21 06:32:30;;;;;;;0.10;0.10;;;;;;;24.11;49.83;102523.63;5053404;28;20036;-66
2022/04/21 06:34:57;;;;;;;1.63;0.17;;;;;;;24.24;49.94;102524.84;5059130;28;20025;-71
2022/04/21 06:37:23;;;;;;;0.20;0.00;;;;;;;24.33;50.64;102527.63;5055933;28;20070;-71
2022/04/21 06:39:48;;;;;;;0.47;0.10;;;;;;;24.23;50.33;102527.75;5053406;28;20028;-73
2022/04/21 06:42:13;;;;;;;2.63;0.65;;;;;;;;;;5053502;28;20025;-68
2022/04/21 06:50:07;;;;;;;0.32;0.03;;;;;;;24.08;52.58;102533.06;5056437;28;20028;-68
2022/04/21 06:52:33;;;;;;;0.35;0.15;;;;;;;24.08;52.62;102535.81;5053715;28;20120;-69
2022/04/21 06:54:58;;;;;;;0.45;0.25;;;;;;;24.11;53.29;102535.47;5054020;28;20388;-69
2022/04/21 06:57:24;;;;;;;0.10;0.10;;;;;;;24.17;53.03;102545.75;5055066;28;20024;-67
2022/04/21 06:59:50;;;;;;;0.68;0.28;;;;;;;24.20;53.72;102539.97;5054377;28;20032;-68
2022/04/21 07:02:15;;;;;;;0.30;0.00;;;;;;;24.20;53.19;102550.94;5052275;28;20032;-68
2022/04/21 07:04:41;;;;;;;0.03;0.00;;;;;;;24.38;55.72;102549.97;5062199;28;20158;-68
2022/04/21 07:07:06;;;;;;;1.15;0.30;;;;;;;24.42;56.59;102551.34;5053468;28;20025;-69
2022/04/21 07:09:31;;;;;;;0.45;0.20;;;;;;;24.45;58.26;102560.09;5054591;28;20056;-69
2022/04/21 07:11:56;;;;;;;0.55;0.10;;;;;;;24.50;59.02;102559.56;5053827;28;20017;-69
2022/04/21 07:14:22;;;;;;;0.93;0.20;;;;;;;24.51;58.89;102566.78;5053516;28;20426;-68
2022/04/21 07:16:47;;;;;;;0.90;0.22;;;;;;;24.56;59.69;102561.66;5054221;28;20021;-68
2022/04/21 07:19:12;;;;;;;0.63;0.17;;;;;;;24.59;60.39;102561.31;5054246;28;20031;-69
2022/04/21 07:21:38;;;;;;;0.80;0.10;;;;;;;24.57;59.20;102563.38;5067013;28;20029;-68
2022/04/21 07:24:03;;;;;;;0.70;0.13;;;;;;;24.61;60.38;102564.75;5054215;28;20060;-69
2022/04/21 07:26:28;;;;;;;0.95;0.30;;;;;;;24.65;60.33;102566.13;5053860;28;20025;-69
2022/04/21 07:28:54;;;;;;;0.57;0.30;;;;;;;24.66;60.78;102567.81;5053986;28;20053;-69
2022/04/21 07:31:19;;;;;;;1.80;0.20;;;;;;;24.67;60.55;102558.53;5054206;28;20457;-66
2022/04/21 07:33:45;;;;;;;0.60;0.20;;;;;;;24.70;60.60;102568.38;5054164;28;20025;-69
2022/04/21 07:36:10;;;;;;;0.70;0.20;;;;;;;24.68;60.66;102571.25;5053916;28;20143;-69
2022/04/21 07:38:36;;;;;;;1.75;0.28;;;;;;;24.71;60.52;102564.59;5052311;28;20074;-69
2022/04/21 07:41:02;;;;;;;1.45;0.20;;;;;;;24.68;61.37;102571.25;5053813;28;20078;-69
2022/04/21 07:43:27;;;;;;;0.45;0.30;;;;;;;24.72;61.11;102572.66;5053677;28;20029;-69
2022/04/21 07:45:52;;;;;;;0.45;0.13;;;;;;;24.73;61.22;102570.78;5053719;28;20032;-69
2022/04/21 07:48:18;;;;;;;0.50;0.32;;;;;;;24.74;60.70;102578.84;5053483;28;20028;-68
2022/04/21 07:50:44;;;;;;;0.70;0.20;;;;;;;24.73;60.33;102574.38;5053687;28;20016;-69
2022/04/21 07:53:15;;;;;;;0.75;0.28;;;;;;;24.78;60.86;102571.97;5053495;28;20048;-69
2022/04/21 07:55:42;;;;;;;0.43;0.10;;;;;;;24.76;60.19;102562.16;5053588;28;20037;-69
2022/04/21 07:58:08;;;;;;;1.55;0.57;;;;;;;24.80;60.47;102578.16;5053469;28;20029;-68
2022/04/21 08:00:36;;;;;;;1.13;0.22;;;;;;;24.78;60.41;102582.97;5053968;28;20365;-66
2022/04/21 08:03:03;;;;;;;1.95;0.73;;;;;;;24.81;60.35;102585.38;5053682;28;20388;-69
2022/04/21 08:05:28;;;;;;;1.17;0.25;;;;;;;24.79;60.98;102578.31;5053556;28;20029;-69
2022/04/21 08:07:54;;;;;;;1.45;0.32;;;;;;;24.83;61.18;102580.53;5061079;28;20028;-69
2022/04/21 08:10:20;;;;;;;1.17;0.28;;;;;;;24.82;60.83;102572.47;5053070;28;20032;-69
2022/04/21 08:12:48;;;;;;;0.77;0.20;;;;;;;24.85;60.48;102588.63;5053297;28;20025;-69
2022/04/21 08:15:33;;;;;;;1.33;0.20;;;;;;;24.85;60.81;102583.97;5053154;28;20029;-69
2022/04/21 08:18:05;;;;;;;0.80;0.20;;;;;;;24.85;60.00;102589.47;5053244;28;20095;-69
2022/04/21 08:20:32;;;;;;;0.43;0.20;;;;;;;24.86;60.35;102591.22;5052683;28;20472;-69
2022/04/21 08:22:57;;;;;;;0.10;0.08;;;;;;;24.83;60.33;102591.53;5053103;28;20033;-69
2022/04/21 08:33:36;;;;;;;0.93;0.20;;;;;;;24.89;60.18;102574.38;5052727;28;20039;-69
2022/04/21 08:36:03;;;;;;;0.82;0.10;;;;;;;24.86;60.38;102574.72;5052872;28;20353;-69
2022/04/21 08:38:30;;;;;;;1.65;0.20;;;;;;;24.88;60.24;102578.16;5052533;28;20025;-69
2022/04/21 08:41:03;;;;;;;1.00;0.10;;;;;;;24.90;60.45;102570.59;5052719;28;20059;-69
2022/04/21 08:43:29;;;;;;;0.80;0.20;;;;;;;24.95;60.64;102577.44;5052551;28;20029;-69
2022/04/21 08:45:55;;;;;;;0.30;0.10;;;;;;;24.90;60.14;102575.22;5052934;28;20040;-69
2022/04/21 08:48:23;;;;;;;0.35;0.30;;;;;;;24.90;59.95;102569.72;5052719;28;20369;-69
2022/04/21 08:50:48;;;;;;;1.58;0.90;;;;;;;24.92;59.96;102566.78;5059968;28;20049;-69
2022/04/21 08:53:16;;;;;;;0.20;0.10;;;;;;;24.92;60.63;102578.66;5053689;28;20032;-69
2022/04/21 08:55:44;;;;;;;1.20;0.25;;;;;;;24.93;59.87;102574.88;5052443;28;20376;-69
2022/04/21 08:58:10;;;;;;;0.98;0.20;;;;;;;24.97;59.58;102580.88;5052941;28;20021;-66
2022/04/21 09:00:35;;;;;;;0.47;0.20;;;;;;;24.99;59.42;102578.81;5052352;28;20044;-69
2022/04/21 09:03:04;;;;;;;1.17;0.10;;;;;;;24.95;59.77;102574.69;5052484;28;20033;-69
2022/04/21 09:05:30;;;;;;;0.93;0.20;;;;;;;24.96;59.32;102579.16;5051078;28;20100;-69
2022/04/21 09:07:57;;;;;;;0.77;0.30;;;;;;;24.95;59.65;102580.19;5052474;28;20155;-68
2022/04/21 09:10:23;;;;;;;0.50;0.15;;;;;;;24.98;59.47;102577.94;5052077;28;20013;-69
2022/04/21 09:12:57;;;;;;;1.40;0.40;;;;;;;25.00;60.03;102575.91;5052339;28;20468;-69
2022/04/21 09:15:25;;;;;;;0.68;0.30;;;;;;;24.98;59.98;102574.34;5052148;28;20031;-69
2022/04/21 09:18:02;;;;;;;1.27;0.20;;;;;;;25.02;58.76;102579.34;5052253;28;20033;-69
2022/04/21 09:20:31;;;;;;;1.73;0.40;;;;;;;24.95;59.80;102578.31;5051928;28;20360;-69
2022/04/21 09:22:59;;;;;;;0.80;0.30;;;;;;;24.98;60.50;102577.09;5052231;28;20472;-69
2022/04/21 09:25:30;;;;;;;0.63;0.40;;;;;;;24.99;59.65;102573.31;5052543;28;20460;-66
2022/04/21 09:27:56;;;;;;;0.82;0.52;;;;;;;25.03;59.04;102577.50;5052624;28;20060;-69
2022/04/21 09:30:22;;;;;;;0.70;0.30;;;;;;;25.03;59.34;102574.72;5051884;28;20024;-69
2022/04/21 09:32:59;;;;;;;0.95;0.30;;;;;;;25.02;59.54;102575.75;5066211;28;20029;-69
2022/04/21 09:35:33;;;;;;;1.00;0.40;;;;;;;25.00;58.85;102575.06;5053411;28;20044;-67
2022/04/21 09:38:02;;;;;;;1.50;0.30;;;;;;;25.04;58.34;102571.81;5054190;28;20074;-67
2022/04/21 09:40:29;;;;;;;0.70;0.10;;;;;;;25.04;59.16;102565.44;5054469;28;20384;-66
2022/04/21 09:43:03;;;;;;;1.20;0.40;;;;;;;25.02;59.08;102572.97;5056070;28;20033;-68
2022/04/21 09:48:24;;;;;;;0.30;0.20;;;;;;;25.02;58.95;102579.34;5055633;28;20039;-67
2022/04/21 09:50:53;;;;;;;1.08;0.35;;;;;;;25.06;59.05;102566.13;5055953;28;20028;-67
2022/04/21 09:53:21;;;;;;;0.40;0.10;;;;;;;25.04;58.89;102565.44;5054172;28;20095;-67
2022/04/21 09:55:48;;;;;;;0.20;0.10;;;;;;;25.06;58.98;102568.88;5056308;28;20059;-64
2022/04/21 09:58:14;;;;;;;0.77;0.20;;;;;;;25.06;58.82;102571.63;5055907;28;20210;-64
2022/04/21 10:00:40;;;;;;;0.93;0.30;;;;;;;25.08;59.47;102566.81;5055560;28;20021;-66
2022/04/21 10:03:07;;;;;;;1.85;0.38;;;;;;;25.05;58.68;102578.16;5056008;28;20060;-66
2022/04/21 10:05:35;;;;;;;1.35;0.47;;;;;;;25.05;59.57;102572.66;5055427;28;20021;-67
2022/04/21 10:08:06;;;;;;;0.75;0.10;;;;;;;25.07;59.26;102573.34;5055689;28;20029;-67
2022/04/21 10:10:33;;;;;;;0.45;0.30;;;;;;;25.08;58.54;102572.31;5075127;28;20071;-69
2022/04/21 10:13:00;;;;;;;1.35;0.15;;;;;;;25.04;58.94;102571.81;5055538;28;20075;-66
2022/04/21 10:15:29;;;;;;;0.95;0.30;;;;;;;25.10;59.50;102567.50;5055357;28;20033;-68
2022/04/21 10:17:55;;;;;;;1.80;0.20;;;;;;;25.05;59.22;102561.66;5055452;28;20024;-67
2022/04/21 10:20:24;;;;;;;1.02;0.20;;;;;;;25.06;58.89;102568.88;5055004;28;20543;-67
2022/04/21 10:22:52;;;;;;;2.03;0.35;;;;;;;25.10;59.13;102570.22;5055332;28;20036;-67
2022/04/21 10:25:22;;;;;;;0.20;0.10;;;;;;;25.13;59.79;102561.63;5055126;28;20024;-68
2022/04/21 10:27:49;;;;;;;0.70;0.10;;;;;;;25.11;58.93;102563.69;5055262;28;20100;-67
2022/04/21 10:30:22;;;;;;;1.00;0.17;;;;;;;25.11;59.38;102566.44;5054930;28;20013;-68
2022/04/21 10:32:49;;;;;;;1.10;0.10;;;;;;;25.09;59.37;102565.78;5055199;28;20380;-67
2022/04/21 10:35:40;;;;;;;0.52;0.13;;;;;;;25.12;58.97;102562.66;5055000;28;20103;-67
2022/04/21 10:38:14;;;;;;;1.15;0.20;;;;;;;25.11;58.83;102564.56;5054942;28;20526;-67
2022/04/21 10:41:03;;;;;;;0.10;0.00;;;;;;;25.14;58.72;102566.09;5053572;28;20021;-67
2022/04/21 10:43:49;;;;;;;1.75;0.25;;;;;;;25.18;58.87;102564.69;5054838;28;20071;-67
2022/04/21 10:46:24;;;;;;;0.68;0.25;;;;;;;25.13;58.65;102567.13;5054713;28;20051;-67
2022/04/21 10:48:50;;;;;;;1.10;0.13;;;;;;;25.12;58.23;102568.16;5054371;28;20036;-65
2022/04/21 10:57:40;;;;;;;0.68;0.20;;;;;;;25.14;58.20;102574.34;4992849;28;20085;-68
2022/04/21 11:00:10;;;;;;;0.95;0.30;;;;;;;25.13;59.34;102575.38;4993023;28;20030;-67
2022/04/21 11:02:45;;;;;;;0.20;0.20;;;;;;;25.15;59.59;102573.31;4992622;28;20470;-67
2022/04/21 11:05:22;;;;;;;1.38;0.22;;;;;;;25.13;59.03;102568.00;4992910;28;20104;-68
2022/04/21 11:07:52;;;;;;;0.35;0.15;;;;;;;25.15;58.69;102565.06;4992924;28;20038;-67
2022/04/21 11:10:41;;;;;;;0.40;0.20;;;;;;;25.19;58.33;102564.56;4992477;28;20033;-67
2022/04/21 11:13:11;;;;;;;1.73;0.45;;;;;;;25.14;59.43;102571.59;4992837;28;20518;-68
2022/04/21 11:15:50;;;;;;;0.85;0.30;;;;;;;25.16;59.69;102564.03;4992704;28;20617;-67
2022/04/21 11:18:31;;;;;;;1.80;0.25;;;;;;;25.16;59.80;102572.28;4992438;28;20112;-67
2022/04/21 11:21:26;;;;;;;0.63;0.40;;;;;;;25.16;59.30;102564.03;4992584;28;20042;-67
2022/04/21 11:23:51;;;;;;;1.08;0.20;;;;;;;25.16;58.21;102555.75;4992525;28;20030;-68
2022/04/21 11:26:17;;;;;;;1.13;0.20;;;;;;;25.20;58.39;102559.91;4992195;28;20038;-68
2022/04/21 11:28:45;;;;;;;0.47;0.20;;;;;;;25.17;58.41;102552.84;4992431;28;20268;-68
2022/04/21 11:31:12;;;;;;;1.40;0.45;;;;;;;25.18;58.18;102550.94;4996587;28;20026;-67
2022/04/21 11:33:39;;;;;;;1.05;0.25;;;;;;;25.16;58.63;102548.38;5025453;28;20060;-67
2022/04/21 11:36:08;;;;;;;1.65;0.47;;;;;;;25.17;58.29;102543.72;5052771;28;20440;-67
2022/04/21 11:38:41;;;;;;;3.03;0.63;;;;;;;25.20;58.09;102543.38;5053646;28;20423;-68
2022/04/21 11:41:09;;;;;;;1.23;0.20;;;;;;;25.16;58.10;102536.50;5053832;28;20029;-68
2022/04/21 11:43:36;;;;;;;1.10;0.40;;;;;;;25.18;58.11;102539.94;5054313;28;20037;-67
2022/04/21 11:46:05;;;;;;;2.13;0.30;;;;;;;25.20;58.56;102537.88;5054227;28;20029;-67
2022/04/21 11:48:33;;;;;;;1.48;0.30;;;;;;;25.23;58.56;102533.91;5053499;28;20033;-67
2022/04/21 11:50:59;;;;;;;1.02;0.30;;;;;;;25.20;58.38;102532.38;5053793;28;20476;-68
2022/04/21 11:53:29;;;;;;;1.80;0.22;;;;;;;25.20;59.11;102537.88;5053196;28;20049;-68
2022/04/21 11:55:54;;;;;;;0.70;0.10;;;;;;;25.18;59.18;102528.91;5053596;28;20106;-67
2022/04/21 11:58:26;;;;;;;0.88;0.20;;;;;;;25.23;59.33;102525.66;5053209;28;20412;-68
2022/04/21 12:06:29;;;;;;;0.40;0.20;;;;;;;25.21;58.28;102512.06;5049172;28;20048;-71
2022/04/21 12:08:55;;;;;;;0.85;0.32;;;;;;;25.22;58.89;102513.78;5051797;28;20090;-68
2022/04/21 12:11:22;;;;;;;1.08;0.32;;;;;;;25.23;58.36;102512.75;5052721;28;20479;-68
2022/04/21 12:13:49;;;;;;;2.28;1.05;;;;;;;25.23;58.65;102515.50;5051407;28;20021;-68
2022/04/21 12:16:39;;;;;;;2.00;0.10;;;;;;;25.24;59.13;102511.72;5053900;28;20491;-66
2022/04/21 12:19:37;;;;;;;1.48;0.25;;;;;;;25.21;58.77;102514.81;5061517;28;20036;-67